Time;durP1;ratioP1;P1;durP2;ratioP2;P2;SDS_P1;SDS_P2;PMS_P1;PMS_P2;Temp;Humidity;BMP_temperature;BMP_pressure;BME280_temperature;BME280_humidity;BME280_pressure;Samples;Min_cycle;Max_cycle;Signal;HPM_P1;HPM_P2
2022/03/14 00:08:01;;;;;;;17.23;10.93;;;6.10;47.00;;;;;;20847644;28;20770;-64
2022/03/14 00:18:03;;;;;;;19.13;11.90;;;5.90;46.70;;;;;;20836127;28;20208;-66
2022/03/14 00:28:05;;;;;;;23.83;13.10;;;5.90;47.40;;;;;;20832879;28;20248;-63
2022/03/14 00:38:07;;;;;;;23.30;12.37;;;5.70;48.50;;;;;;20832653;28;20275;-69
2022/03/14 00:48:09;;;;;;;18.10;11.60;;;5.70;48.80;;;;;;20832075;28;20229;-73
2022/03/14 00:58:11;;;;;;;21.03;12.30;;;5.70;48.90;;;;;;20831847;28;20208;-70
2022/03/14 01:08:12;;;;;;;21.73;12.47;;;5.70;48.70;;;;;;20831372;28;20287;-65
2022/03/14 01:18:14;;;;;;;23.00;12.73;;;5.50;48.70;;;;;;20828906;28;20208;-64
2022/03/14 01:28:16;;;;;;;20.40;12.43;;;5.40;48.60;;;;;;20827378;28;20244;-65
2022/03/14 01:38:17;;;;;;;18.63;11.93;;;5.30;48.70;;;;;;20829011;28;20216;-64
2022/03/14 01:48:19;;;;;;;20.20;11.83;;;5.40;49.30;;;;;;20828920;28;20297;-64
2022/03/14 01:58:22;;;;;;;16.33;10.03;;;5.30;49.20;;;;;;20828788;28;20744;-63
2022/03/14 02:08:24;;;;;;;16.87;10.83;;;5.30;48.20;;;;;;20828180;28;20679;-64
2022/03/14 02:18:26;;;;;;;18.87;10.83;;;5.30;48.20;;;;;;20827532;28;20205;-63
2022/03/14 02:28:27;;;;;;;16.30;10.33;;;5.20;48.60;;;;;;20827491;28;20696;-63
2022/03/14 02:38:29;;;;;;;16.77;11.00;;;5.20;49.20;;;;;;20827035;28;20208;-67
2022/03/14 02:48:31;;;;;;;19.97;11.40;;;5.20;48.40;;;;;;20834179;28;20236;-65
2022/03/14 02:58:38;;;;;;;22.43;12.00;;;5.20;48.90;;;;;;20840903;28;20561;-65
2022/03/14 03:08:44;;;;;;;20.23;11.77;;;5.10;49.20;;;;;;20839917;28;20700;-67
2022/03/14 03:18:46;;;;;;;18.80;11.67;;;5.20;49.90;;;;;;20846266;28;20254;-63
2022/03/14 03:28:47;;;;;;;18.27;11.73;;;5.20;50.60;;;;;;20920642;28;20235;-64
2022/03/14 03:38:49;;;;;;;22.57;12.50;;;5.20;51.20;;;;;;20920067;28;20612;-66
2022/03/14 03:48:51;;;;;;;20.10;11.37;;;5.20;51.10;;;;;;20919244;28;20593;-68
2022/03/14 03:58:52;;;;;;;23.90;12.33;;;5.20;50.60;;;;;;20918692;28;20253;-66
2022/03/14 04:08:55;;;;;;;25.10;12.47;;;5.30;50.90;;;;;;20917770;28;20232;-67
2022/03/14 04:18:56;;;;;;;24.03;12.17;;;5.30;51.00;;;;;;20916670;28;20239;-65
2022/03/14 04:28:58;;;;;;;19.50;10.77;;;5.30;51.30;;;;;;20916325;28;20236;-67
2022/03/14 04:39:00;;;;;;;18.37;10.73;;;5.50;50.20;;;;;;20915459;28;20570;-63
2022/03/14 04:49:04;;;;;;;19.73;11.77;;;5.70;50.40;;;;;;20917622;28;20232;-62
2022/03/14 04:59:05;;;;;;;23.20;13.03;;;5.70;50.90;;;;;;20914531;28;20263;-67
2022/03/14 05:09:07;;;;;;;18.20;12.40;;;5.80;51.00;;;;;;20912334;28;20239;-65
2022/03/14 05:19:09;;;;;;;18.57;12.20;;;6.00;51.20;;;;;;20902401;28;20262;-66
2022/03/14 05:29:12;;;;;;;21.00;12.00;;;6.10;52.10;;;;;;20828262;28;20644;-64
2022/03/14 05:39:14;;;;;;;19.77;12.63;;;6.30;52.30;;;;;;20829155;28;20552;-69
2022/03/14 05:49:16;;;;;;;20.97;13.37;;;6.10;53.60;;;;;;20828637;28;20298;-71
2022/03/14 05:59:17;;;;;;;20.80;13.23;;;6.00;54.40;;;;;;20886962;28;20212;-62
2022/03/14 06:09:19;;;;;;;24.27;13.53;;;6.00;56.00;;;;;;20910060;28;20584;-64
2022/03/14 06:19:21;;;;;;;26.80;14.27;;;5.80;57.70;;;;;;20920413;28;20584;-64
2022/03/14 06:29:23;;;;;;;24.37;13.83;;;6.00;58.80;;;;;;20934917;28;20236;-65
2022/03/14 06:39:24;;;;;;;21.00;13.07;;;5.90;59.60;;;;;;20923799;28;20266;-71
2022/03/14 06:49:26;;;;;;;24.37;15.13;;;5.90;60.40;;;;;;20921120;28;20239;-71
2022/03/14 06:59:29;;;;;;;24.17;14.53;;;6.20;61.60;;;;;;20921852;28;20234;-66
2022/03/14 07:09:31;;;;;;;21.77;14.40;;;6.20;62.00;;;;;;20921045;28;20242;-63
2022/03/14 07:19:34;;;;;;;26.07;13.93;;;6.40;64.10;;;;;;20915288;28;20240;-63
2022/03/14 07:29:36;;;;;;;22.33;14.20;;;6.50;64.50;;;;;;20915960;28;20311;-67
2022/03/14 07:39:37;;;;;;;27.57;15.20;;;6.50;66.00;;;;;;20918669;28;20216;-64
2022/03/14 07:49:39;;;;;;;28.77;15.77;;;6.70;68.00;;;;;;20917966;28;20236;-69
2022/03/14 07:59:42;;;;;;;25.87;15.23;;;6.70;69.20;;;;;;20917680;28;20213;-62
2022/03/14 08:09:43;;;;;;;25.00;15.63;;;7.00;71.00;;;;;;20915126;28;20286;-66
2022/03/14 08:19:45;;;;;;;25.77;16.23;;;7.00;72.60;;;;;;20915624;28;20238;-70
2022/03/14 08:29:47;;;;;;;36.87;20.30;;;7.20;74.00;;;;;;20917220;28;20229;-69
2022/03/14 08:39:49;;;;;;;25.77;15.80;;;7.50;76.10;;;;;;20916002;28;20209;-64
2022/03/14 08:49:51;;;;;;;30.77;16.60;;;7.80;77.60;;;;;;20916344;28;20231;-65
2022/03/14 08:59:54;;;;;;;27.77;17.07;;;7.90;79.80;;;;;;20923001;28;20308;-67
2022/03/14 09:10:05;;;;;;;26.73;16.53;;;8.50;83.50;;;;;;20917991;28;20262;-62
2022/03/14 09:20:08;;;;;;;9.97;6.27;;;8.50;84.20;;;;;;20916568;28;20238;-65
2022/03/14 09:30:11;;;;;;;6.57;4.47;;;8.90;88.10;;;;;;20827885;28;20237;-62
2022/03/14 09:40:18;;;;;;;9.97;4.00;;;9.20;90.50;;;;;;20828724;28;20208;-63
2022/03/14 09:50:34;;;;;;;7.20;4.50;;;9.40;91.80;;;;;;20827730;28;20256;-63
2022/03/14 10:00:37;;;;;;;8.13;4.50;;;9.70;92.50;;;;;;20842181;28;20274;-77
2022/03/14 10:10:45;;;;;;;8.00;4.90;;;10.00;92.70;;;;;;20843306;28;20236;-73
2022/03/14 10:21:06;;;;;;;10.53;4.10;;;9.90;93.30;;;;;;20842509;28;20298;-64
2022/03/14 10:31:08;;;;;;;6.00;3.67;;;10.00;93.20;;;;;;20841378;28;20248;-70
2022/03/14 10:41:16;;;;;;;11.27;4.57;;;10.00;93.40;;;;;;20841127;28;20656;-68
2022/03/14 10:51:52;;;;;;;10.23;4.30;;;10.10;93.20;;;;;;20919857;28;20233;-63
2022/03/14 11:02:01;;;;;;;13.47;3.73;;;10.30;93.30;;;;;;20925378;28;20212;-62
2022/03/14 11:12:13;;;;;;;10.30;5.20;;;11.10;93.20;;;;;;20920838;28;20329;-62
2022/03/14 11:22:17;;;;;;;6.00;3.30;;;11.40;93.20;;;;;;20906066;28;20229;-70
2022/03/14 11:32:21;;;;;;;7.67;2.87;;;11.80;92.10;;;;;;20835408;28;20344;-64
2022/03/14 11:42:35;;;;;;;9.57;3.17;;;11.60;90.50;;;;;;20836948;28;20228;-61
2022/03/14 11:52:42;;;;;;;6.53;3.00;;;11.60;89.80;;;;;;20836003;28;20215;-64
2022/03/14 12:02:43;;;;;;;6.40;3.13;;;11.60;89.80;;;;;;20836501;28;20225;-66
2022/03/14 12:12:51;;;;;;;7.90;3.03;;;11.70;87.30;;;;;;20894439;28;20654;-64
2022/03/14 12:22:52;;;;;;;5.53;2.70;;;11.80;85.50;;;;;;20923751;28;20294;-65
2022/03/14 12:32:55;;;;;;;6.83;2.47;;;11.90;83.60;;;;;;20915745;28;20293;-63
2022/03/14 12:43:30;;;;;;;5.90;2.40;;;12.10;81.40;;;;;;20914772;28;20288;-64
2022/03/14 12:53:32;;;;;;;5.20;2.10;;;12.10;79.40;;;;;;20912823;28;20261;-63
2022/03/14 13:03:36;;;;;;;6.43;2.00;;;12.10;78.00;;;;;;20911173;28;20234;-65
2022/03/14 13:13:38;;;;;;;6.50;2.20;;;12.50;76.30;;;;;;20911038;28;20208;-67
2022/03/14 13:23:41;;;;;;;2.80;1.80;;;12.40;73.00;;;;;;20888961;28;20239;-64
2022/03/14 13:33:47;;;;;;;6.37;1.80;;;12.40;72.40;;;;;;20831161;28;20656;-67
2022/03/14 13:43:51;;;;;;;4.23;1.70;;;12.90;71.00;;;;;;20827496;28;20715;-66
2022/03/14 13:53:54;;;;;;;4.40;2.27;;;13.40;68.00;;;;;;20829144;28;20205;-67
2022/03/14 14:03:55;;;;;;;2.63;1.60;;;13.80;65.40;;;;;;20826806;28;20575;-68
2022/03/14 14:13:57;;;;;;;2.40;1.70;;;13.70;64.00;;;;;;20826734;28;20747;-68
2022/03/14 14:23:59;;;;;;;3.50;1.70;;;13.60;63.60;;;;;;20825800;28;20758;-62
2022/03/14 14:34:00;;;;;;;2.13;1.53;;;13.90;62.50;;;;;;20826466;28;20267;-65
2022/03/14 14:44:02;;;;;;;2.77;1.60;;;14.90;59.70;;;;;;20870493;28;20254;-63
2022/03/14 14:54:04;;;;;;;2.57;1.50;;;15.90;57.30;;;;;;20922274;28;20203;-66
2022/03/14 15:04:06;;;;;;;4.27;1.77;;;16.70;55.30;;;;;;20921484;28;20233;-65
2022/03/14 15:14:09;;;;;;;3.30;1.70;;;15.60;56.40;;;;;;20921390;28;20276;-64
2022/03/14 15:24:12;;;;;;;4.67;2.47;;;15.90;55.60;;;;;;20902935;28;20267;-68
2022/03/14 15:34:14;;;;;;;4.30;1.80;;;15.60;56.20;;;;;;20817857;28;20210;-67
2022/03/14 15:44:16;;;;;;;6.90;1.90;;;15.60;56.70;;;;;;20837175;28;20767;-70
2022/03/14 15:54:18;;;;;;;6.23;1.93;;;15.70;57.10;;;;;;20836089;28;20216;-63
2022/03/14 16:04:20;;;;;;;4.83;2.00;;;14.50;58.20;;;;;;20837958;28;20236;-66
2022/03/14 16:14:22;;;;;;;2.03;1.67;;;14.20;58.40;;;;;;20916470;28;20260;-66
2022/03/14 16:24:24;;;;;;;5.90;2.17;;;13.90;58.70;;;;;;20915814;28;20650;-62
2022/03/14 16:34:25;;;;;;;11.27;2.20;;;13.80;59.10;;;;;;20881807;28;20651;-67
2022/03/14 16:44:28;;;;;;;9.37;2.17;;;13.70;60.50;;;;;;20893331;28;20239;-61
2022/03/14 16:54:31;;;;;;;5.77;2.60;;;13.70;60.40;;;;;;20827265;28;20524;-65
2022/03/14 17:04:34;;;;;;;6.90;2.60;;;14.00;60.10;;;;;;20826679;28;20247;-63
2022/03/14 17:14:37;;;;;;;7.90;3.20;;;13.30;60.40;;;;;;20830889;28;20204;-65
2022/03/14 17:24:38;;;;;;;5.37;3.00;;;12.90;62.10;;;;;;20868921;28;20720;-66
2022/03/14 17:34:40;;;;;;;6.50;3.60;;;12.70;63.30;;;;;;20913224;28;20269;-62
2022/03/14 17:44:43;;;;;;;6.03;2.57;;;12.40;64.40;;;;;;20910894;28;20242;-65
2022/03/14 17:54:44;;;;;;;11.50;3.97;;;12.10;65.50;;;;;;20861716;28;20209;-66
2022/03/14 18:04:46;;;;;;;9.27;4.50;;;11.80;67.50;;;;;;20887607;28;20739;-63
2022/03/14 18:14:48;;;;;;;7.40;5.10;;;11.60;68.20;;;;;;20849609;28;20607;-61
2022/03/14 18:24:50;;;;;;;11.17;6.50;;;11.30;69.10;;;;;;20851604;28;20279;-63
2022/03/14 18:34:52;;;;;;;11.63;7.20;;;10.90;70.30;;;;;;20843156;28;20228;-68
2022/03/14 18:44:54;;;;;;;13.10;7.10;;;10.80;71.40;;;;;;20842567;28;20700;-67
2022/03/14 18:54:56;;;;;;;17.70;9.63;;;10.40;72.30;;;;;;20854916;28;20215;-64
2022/03/14 19:04:57;;;;;;;13.60;7.50;;;10.10;72.70;;;;;;20888912;28;20624;-66
2022/03/14 19:14:59;;;;;;;11.90;8.10;;;10.00;74.10;;;;;;20872047;28;20218;-68
2022/03/14 19:25:02;;;;;;;17.87;9.70;;;9.80;75.60;;;;;;20839181;28;20302;-63
2022/03/14 19:35:06;;;;;;;19.80;11.63;;;9.40;76.50;;;;;;20915468;28;20605;-74
2022/03/14 19:45:08;;;;;;;27.80;12.57;;;9.30;76.80;;;;;;20921128;28;20785;-65
2022/03/14 19:55:10;;;;;;;14.37;10.27;;;9.20;78.30;;;;;;20913494;28;20218;-62
2022/03/14 20:05:14;;;;;;;22.53;13.03;;;8.90;77.90;;;;;;20876682;28;20637;-61
2022/03/14 20:15:16;;;;;;;19.57;12.10;;;8.90;78.50;;;;;;20836065;28;20210;-61
2022/03/14 20:25:21;;;;;;;24.03;12.17;;;8.80;78.70;;;;;;20835097;28;20284;-63
2022/03/14 20:35:23;;;;;;;17.77;11.87;;;8.60;78.90;;;;;;20834971;28;20209;-62
2022/03/14 20:45:25;;;;;;;20.80;11.47;;;8.50;79.60;;;;;;20833206;28;20583;-68
2022/03/14 20:55:26;;;;;;;17.00;10.90;;;8.30;81.00;;;;;;20856016;28;20236;-64
2022/03/14 21:05:29;;;;;;;16.47;10.47;;;8.20;81.40;;;;;;20902374;28;20227;-65
2022/03/14 21:15:31;;;;;;;18.77;11.10;;;8.00;81.20;;;;;;20831430;28;20219;-66
2022/03/14 21:25:33;;;;;;;24.80;13.50;;;8.00;82.10;;;;;;20855722;28;20251;-64
2022/03/14 21:35:35;;;;;;;16.27;9.87;;;7.80;82.20;;;;;;20909705;28;20213;-62
2022/03/14 21:45:38;;;;;;;24.77;13.13;;;7.70;82.80;;;;;;20911335;28;20229;-60
2022/03/14 21:58:34;;;;;;;23.10;9.70;;;7.40;83.30;;;;;;20983030;28;20561;-60
2022/03/14 22:08:36;;;;;;;20.47;10.03;;;7.30;84.00;;;;;;20982985;28;20307;-62
2022/03/14 22:18:38;;;;;;;15.83;9.53;;;5.20;82.70;;;;;;20983451;28;20214;-63
2022/03/14 22:28:40;;;;;;;16.93;9.80;;;7.10;84.90;;;;;;20981567;28;20253;-62
2022/03/14 22:38:41;;;;;;;16.07;9.80;;;7.00;84.40;;;;;;20980853;28;20247;-61
2022/03/14 22:48:43;;;;;;;13.73;8.20;;;6.90;84.90;;;;;;20978597;28;20660;-62
2022/03/14 22:58:45;;;;;;;14.97;9.17;;;6.90;85.20;;;;;;20977606;28;20218;-62
2022/03/14 23:08:47;;;;;;;15.90;8.70;;;6.60;85.60;;;;;;20928932;28;20631;-64
2022/03/14 23:18:50;;;;;;;12.80;7.60;;;6.60;85.40;;;;;;20891534;28;20216;-61
2022/03/14 23:28:53;;;;;;;12.87;8.10;;;6.60;86.00;;;;;;20836934;28;20216;-64
2022/03/14 23:39:01;;;;;;;10.90;7.50;;;6.50;86.50;;;;;;20839373;28;20210;-62
2022/03/14 23:49:04;;;;;;;12.93;7.30;;;6.30;86.40;;;;;;20837731;28;20284;-62
2022/03/14 23:59:06;;;;;;;15.03;7.67;;;6.40;86.60;;;;;;20837350;28;20619;-62
